createdAt,value
2018-08-16T00:02:15.288Z,58.75
2018-08-16T00:04:43.888Z,58.86
2018-08-16T00:07:12.687Z,59.03
2018-08-16T00:09:41.300Z,59.03
2018-08-16T00:12:09.876Z,58.84
2018-08-16T00:14:38.521Z,59.30
2018-08-16T00:17:08.428Z,59.19
2018-08-16T00:19:37.032Z,60.03
2018-08-16T00:22:05.928Z,60.09
2018-08-16T00:24:34.488Z,60.03
2018-08-16T00:27:03.047Z,60.40
2018-08-16T00:29:32.117Z,60.50
2018-08-16T00:32:00.696Z,60.74
2018-08-16T00:34:29.276Z,60.93
2018-08-16T00:36:57.879Z,60.88
2018-08-16T00:39:26.464Z,60.72
2018-08-16T00:41:55.046Z,60.79
2018-08-16T00:44:23.955Z,60.98
2018-08-16T00:46:52.583Z,60.91
2018-08-16T00:49:21.164Z,61.13
2018-08-16T00:51:49.905Z,61.35
2018-08-16T00:54:18.491Z,61.32
2018-08-16T00:56:47.060Z,61.50
2018-08-16T00:59:15.651Z,61.59
2018-08-16T01:01:44.228Z,61.37
2018-08-16T01:04:12.855Z,61.84
2018-08-16T01:06:41.548Z,61.76
2018-08-16T01:09:11.503Z,61.53
2018-08-16T01:11:40.231Z,61.80
2018-08-16T01:14:09.932Z,61.29
2018-08-16T01:16:38.636Z,60.99
2018-08-16T01:19:07.316Z,61.18
2018-08-16T01:21:35.974Z,61.30
2018-08-16T01:24:04.636Z,61.69
2018-08-16T01:26:33.241Z,61.94
2018-08-16T01:29:01.983Z,61.74
2018-08-16T01:31:30.580Z,61.94
2018-08-16T01:33:59.219Z,61.88
2018-08-16T01:36:27.839Z,61.70
2018-08-16T01:38:56.431Z,61.56
2018-08-16T01:41:25.055Z,61.52
2018-08-16T01:43:53.684Z,61.71
2018-08-16T01:46:22.247Z,61.87
2018-08-16T01:48:50.816Z,61.81
2018-08-16T01:51:19.551Z,62.23
2018-08-16T01:53:48.116Z,62.32
2018-08-16T01:56:16.737Z,62.43
2018-08-16T01:58:45.627Z,62.25
2018-08-16T02:01:14.197Z,62.46
2018-08-16T02:03:42.814Z,62.37
2018-08-16T02:06:11.452Z,62.41
2018-08-16T02:08:40.065Z,63.01
2018-08-16T02:11:08.672Z,62.74
2018-08-16T02:13:37.272Z,62.80
2018-08-16T02:16:05.902Z,63.40
2018-08-16T02:18:34.476Z,62.84
2018-08-16T02:21:03.395Z,62.88
2018-08-16T02:23:32.062Z,62.65
2018-08-16T02:26:00.645Z,62.88
2018-08-16T02:28:29.251Z,63.31
2018-08-16T02:30:57.819Z,62.88
2018-08-16T02:33:26.423Z,63.31
2018-08-16T02:35:55.079Z,63.10
2018-08-16T02:38:23.656Z,63.85
2018-08-16T02:40:52.246Z,63.81
2018-08-16T02:43:20.889Z,63.84
2018-08-16T02:45:49.524Z,63.42
2018-08-16T02:48:18.096Z,63.82
2018-08-16T02:50:46.721Z,63.67
2018-08-16T02:53:15.283Z,64.18
2018-08-16T02:55:43.860Z,63.84
2018-08-16T02:58:12.488Z,64.09
2018-08-16T03:00:41.095Z,63.93
2018-08-16T03:03:09.699Z,63.89
2018-08-16T03:05:38.408Z,63.81
2018-08-16T03:08:07.471Z,63.81
2018-08-16T03:10:36.048Z,63.74
2018-08-16T03:13:04.760Z,63.90
2018-08-16T03:15:33.347Z,63.57
2018-08-16T03:18:01.937Z,63.81
2018-08-16T03:20:30.540Z,64.10
2018-08-16T03:22:59.107Z,64.18
2018-08-16T03:25:27.663Z,64.49
2018-08-16T03:27:56.335Z,64.37
2018-08-16T03:30:24.899Z,64.48
2018-08-16T03:32:53.463Z,64.66
2018-08-16T03:35:22.233Z,64.64
2018-08-16T03:37:50.824Z,64.87
2018-08-16T03:40:19.395Z,64.51
2018-08-16T03:42:48.091Z,64.58
2018-08-16T03:45:16.675Z,64.47
2018-08-16T03:47:45.363Z,64.53
2018-08-16T03:50:14.107Z,64.51
2018-08-16T03:52:42.715Z,64.30
2018-08-16T03:55:11.292Z,64.13
2018-08-16T03:57:39.996Z,64.23
2018-08-16T04:00:09.022Z,64.46
2018-08-16T04:02:37.652Z,64.89
2018-08-16T04:05:06.787Z,65.50
2018-08-16T04:07:35.375Z,65.38
2018-08-16T04:10:04.121Z,65.34
2018-08-16T04:12:32.844Z,65.38
2018-08-16T04:15:01.423Z,65.35
2018-08-16T04:17:34.032Z,65.53
2018-08-16T04:20:03.106Z,65.48
2018-08-16T04:22:31.746Z,65.20
2018-08-16T04:25:00.384Z,65.30
2018-08-16T04:27:29.045Z,65.20
2018-08-16T04:29:57.954Z,65.29
2018-08-16T04:32:27.232Z,65.17
2018-08-16T04:34:55.831Z,65.18
2018-08-16T04:37:24.403Z,65.37
2018-08-16T04:39:53.019Z,65.12
2018-08-16T04:42:21.596Z,65.23
2018-08-16T04:44:50.212Z,65.39
2018-08-16T04:47:18.908Z,65.40
2018-08-16T04:49:47.488Z,65.31
2018-08-16T04:52:16.084Z,65.05
2018-08-16T04:54:44.700Z,65.13
2018-08-16T04:57:13.272Z,65.18
2018-08-16T04:59:41.848Z,65.05
2018-08-16T05:02:10.616Z,64.84
2018-08-16T05:04:39.212Z,64.74
2018-08-16T05:07:07.802Z,64.69
2018-08-16T05:09:36.488Z,64.68
2018-08-16T05:12:05.132Z,64.58
2018-08-16T05:14:33.695Z,64.15
2018-08-16T05:17:02.332Z,64.45
2018-08-16T05:19:30.927Z,64.37
2018-08-16T05:21:59.528Z,64.08
2018-08-16T05:24:28.155Z,63.87
2018-08-16T05:26:56.748Z,63.75
2018-08-16T05:29:25.375Z,63.76
2018-08-16T05:31:54.073Z,63.28
2018-08-16T05:34:22.655Z,63.38
2018-08-16T05:36:51.279Z,62.97
2018-08-16T05:39:19.920Z,62.69
2018-08-16T05:41:48.495Z,62.08
2018-08-16T05:44:17.072Z,62.23
2018-08-16T05:46:45.740Z,62.27
2018-08-16T05:49:14.313Z,61.67
2018-08-16T05:51:43.028Z,62.14
2018-08-16T05:54:11.812Z,61.77
2018-08-16T05:56:40.412Z,61.59
2018-08-16T05:59:09.003Z,61.60
2018-08-16T06:01:37.746Z,60.97
2018-08-16T06:04:06.336Z,61.00
2018-08-16T06:06:34.974Z,60.26
2018-08-16T06:09:04.892Z,60.34
2018-08-16T06:11:33.484Z,59.38
2018-08-16T06:14:02.067Z,59.07
2018-08-16T06:16:30.711Z,59.22
2018-08-16T06:18:59.368Z,58.66
2018-08-16T06:21:27.960Z,57.50
2018-08-16T06:23:56.663Z,57.75
2018-08-16T06:26:25.231Z,57.12
2018-08-16T06:28:53.796Z,56.41
2018-08-16T06:31:22.512Z,55.05
2018-08-16T06:33:51.087Z,54.90
2018-08-16T06:36:19.938Z,54.69
2018-08-16T06:38:48.763Z,53.44
2018-08-16T06:41:17.371Z,53.69
2018-08-16T06:43:45.976Z,52.16
2018-08-16T06:46:14.684Z,52.17
2018-08-16T06:48:43.312Z,51.26
2018-08-16T06:51:12.194Z,50.40
2018-08-16T06:53:41.176Z,49.42
2018-08-16T06:56:09.799Z,49.05
2018-08-16T06:58:38.408Z,48.01
2018-08-16T07:01:07.035Z,46.57
2018-08-16T07:03:35.632Z,45.93
2018-08-16T07:06:04.276Z,45.38
2018-08-16T07:08:32.884Z,44.74
2018-08-16T07:11:01.497Z,44.55
2018-08-16T07:13:30.091Z,43.65
2018-08-16T07:15:59.050Z,42.51
2018-08-16T07:18:27.632Z,42.31
2018-08-16T07:20:56.208Z,41.57
2018-08-16T07:23:25.112Z,40.42
2018-08-16T07:25:53.672Z,39.96
2018-08-16T07:28:22.240Z,39.76
2018-08-16T07:30:50.879Z,38.55
2018-08-16T07:33:19.460Z,38.09
2018-08-16T07:35:48.031Z,39.37
2018-08-16T07:38:16.696Z,37.82
2018-08-16T07:40:45.303Z,36.75
2018-08-16T07:43:13.920Z,36.64
2018-08-16T07:45:42.766Z,36.30
2018-08-16T07:48:11.269Z,35.51
2018-08-16T07:50:39.901Z,34.89
2018-08-16T07:53:08.592Z,35.33
2018-08-16T07:55:37.188Z,33.55
2018-08-16T07:58:05.804Z,33.90
2018-08-16T08:00:34.420Z,33.48
2018-08-16T08:03:03.024Z,33.12
2018-08-16T08:05:31.637Z,32.98
2018-08-16T08:08:00.243Z,32.51
2018-08-16T08:10:28.865Z,32.70
2018-08-16T08:12:57.471Z,32.11
2018-08-16T08:15:26.249Z,32.38
2018-08-16T08:17:54.825Z,31.37
2018-08-16T08:20:23.408Z,30.49
2018-08-16T08:22:52.364Z,31.11
2018-08-16T08:25:20.976Z,30.49
2018-08-16T08:27:49.539Z,29.98
2018-08-16T08:30:18.520Z,29.64
2018-08-16T08:32:47.103Z,30.18
2018-08-16T08:35:15.724Z,30.29
2018-08-16T08:37:55.644Z,29.39
2018-08-16T08:40:24.209Z,29.00
2018-08-16T08:42:52.775Z,29.95
2018-08-16T08:45:21.391Z,29.43
2018-08-16T08:47:54.091Z,29.43
2018-08-16T08:50:22.824Z,29.52
2018-08-16T08:52:51.463Z,28.92
2018-08-16T08:55:31.340Z,28.64
2018-08-16T08:58:10.844Z,29.02
2018-08-16T09:00:39.574Z,28.32
2018-08-16T09:03:08.160Z,27.75
2018-08-16T09:05:36.742Z,27.57
2018-08-16T09:08:05.860Z,27.07
2018-08-16T09:10:54.957Z,27.01
2018-08-16T09:13:35.922Z,26.68
2018-08-16T09:16:13.891Z,26.06
2018-08-16T09:18:42.540Z,25.61
2018-08-16T09:21:11.908Z,25.63
2018-08-16T09:23:40.535Z,25.00
2018-08-16T09:26:14.352Z,25.54
2018-08-16T09:28:43.039Z,23.58
2018-08-16T09:31:23.645Z,23.38
2018-08-16T09:34:03.259Z,23.62
2018-08-16T09:36:31.971Z,23.88
2018-08-16T09:39:00.648Z,22.70
2018-08-16T09:41:29.744Z,22.99
2018-08-16T09:43:58.410Z,22.76
2018-08-16T09:46:59.897Z,22.87
2018-08-16T09:49:30.139Z,22.93
2018-08-16T09:51:58.787Z,22.57
2018-08-16T09:54:27.383Z,22.32
2018-08-16T09:56:57.140Z,21.80
2018-08-16T09:59:25.789Z,21.41
2018-08-16T10:01:54.408Z,21.28
2018-08-16T10:04:23.372Z,20.84
2018-08-16T10:06:52.020Z,19.98
2018-08-16T10:09:23.993Z,20.63
2018-08-16T10:11:53.055Z,20.72
2018-08-16T10:14:21.907Z,20.11
2018-08-16T10:16:50.598Z,19.68
2018-08-16T10:19:19.569Z,20.06
2018-08-16T10:21:48.216Z,19.69
2018-08-16T10:24:16.827Z,20.80
2018-08-16T10:26:45.435Z,20.57
2018-08-16T10:29:14.075Z,20.20
2018-08-16T10:31:42.783Z,20.31
2018-08-16T10:34:11.374Z,19.64
2018-08-16T10:36:40.043Z,20.46
2018-08-16T10:39:12.167Z,20.84
2018-08-16T10:41:41.208Z,20.52
2018-08-16T10:44:09.869Z,20.32
2018-08-16T10:46:38.524Z,19.32
2018-08-16T10:49:07.134Z,19.51
2018-08-16T10:51:35.795Z,19.45
2018-08-16T10:54:04.455Z,19.41
2018-08-16T10:56:33.045Z,19.67
2018-08-16T10:59:01.706Z,19.65
2018-08-16T11:01:30.756Z,20.14
2018-08-16T11:03:59.411Z,20.49
2018-08-16T11:06:28.012Z,20.35
2018-08-16T11:08:56.643Z,20.11
2018-08-16T11:11:25.223Z,21.00
2018-08-16T11:13:53.800Z,22.25
2018-08-16T11:16:22.416Z,22.56
2018-08-16T11:18:50.993Z,23.73
2018-08-16T11:21:19.597Z,23.86
2018-08-16T11:23:48.526Z,23.63
2018-08-16T11:26:17.128Z,22.59
2018-08-16T11:28:45.713Z,21.05
2018-08-16T11:31:14.349Z,19.33
2018-08-16T11:33:42.918Z,18.02
2018-08-16T11:36:11.504Z,17.68
2018-08-16T11:38:40.455Z,16.51
2018-08-16T11:41:09.067Z,16.15
2018-08-16T11:43:37.644Z,15.65
2018-08-16T11:46:06.395Z,14.76
2018-08-16T11:48:34.957Z,14.69
2018-08-16T11:51:03.595Z,15.33
2018-08-16T11:53:32.292Z,16.93
2018-08-16T11:56:00.880Z,17.71
2018-08-16T11:58:29.446Z,18.78
2018-08-16T12:00:58.173Z,19.36
2018-08-16T12:03:26.740Z,20.65
2018-08-16T12:05:55.372Z,20.26
2018-08-16T12:08:24.031Z,20.02
2018-08-16T12:10:52.621Z,21.06
2018-08-16T12:13:21.212Z,21.04
2018-08-16T12:15:49.820Z,20.79
2018-08-16T12:18:18.428Z,21.63
2018-08-16T12:20:46.991Z,21.65
2018-08-16T12:23:15.871Z,21.72
2018-08-16T12:25:44.444Z,22.54
2018-08-16T12:28:13.057Z,22.24
2018-08-16T12:30:41.710Z,22.44
2018-08-16T12:33:10.304Z,22.10
2018-08-16T12:35:38.894Z,22.77
2018-08-16T12:38:07.528Z,22.36
2018-08-16T12:40:36.105Z,22.77
2018-08-16T12:43:04.701Z,23.18
2018-08-16T12:45:33.656Z,22.97
2018-08-16T12:48:02.257Z,23.51
2018-08-16T12:50:30.820Z,22.65
2018-08-16T12:52:59.556Z,22.98
2018-08-16T12:55:28.156Z,23.09
2018-08-16T12:57:56.744Z,22.80
2018-08-16T13:00:25.666Z,23.05
2018-08-16T13:02:54.232Z,22.56
2018-08-16T13:05:22.793Z,22.04
2018-08-16T13:07:51.495Z,22.29
2018-08-16T13:10:20.224Z,22.55
2018-08-16T13:12:48.812Z,22.62
2018-08-16T13:15:17.420Z,22.34
2018-08-16T13:17:46.020Z,22.27
2018-08-16T13:20:14.604Z,22.49
2018-08-16T13:22:43.316Z,22.90
2018-08-16T13:25:11.880Z,23.21
2018-08-16T13:27:40.495Z,23.01
2018-08-16T13:30:09.391Z,22.13
2018-08-16T13:32:37.965Z,22.07
2018-08-16T13:35:06.667Z,22.03
2018-08-16T13:37:35.396Z,21.83
2018-08-16T13:40:04.135Z,22.95
2018-08-16T13:42:32.729Z,22.46
2018-08-16T13:45:01.616Z,22.48
2018-08-16T13:47:30.203Z,22.55
2018-08-16T13:49:58.796Z,22.03
2018-08-16T13:52:28.560Z,22.52
2018-08-16T13:54:57.154Z,22.22
2018-08-16T13:57:25.739Z,22.17
2018-08-16T13:59:54.665Z,21.42
2018-08-16T14:02:25.124Z,21.54
2018-08-16T14:04:53.791Z,22.39
2018-08-16T14:07:22.432Z,22.61
2018-08-16T14:09:51.001Z,22.70
2018-08-16T14:12:21.668Z,23.01
2018-08-16T14:14:50.340Z,22.40
2018-08-16T14:17:18.983Z,22.57
2018-08-16T14:19:51.275Z,23.22
2018-08-16T14:22:19.956Z,23.22
2018-08-16T14:24:50.927Z,23.47
2018-08-16T14:27:19.803Z,23.44
2018-08-16T14:29:48.404Z,23.44
2018-08-16T14:32:17.072Z,23.22
2018-08-16T14:34:45.625Z,23.13
2018-08-16T14:37:14.197Z,23.59
2018-08-16T14:39:42.876Z,23.84
2018-08-16T14:42:11.488Z,23.22
2018-08-16T14:44:40.088Z,23.19
2018-08-16T14:47:10.116Z,23.46
2018-08-16T14:49:38.792Z,23.18
2018-08-16T14:52:07.420Z,24.11
2018-08-16T14:54:36.076Z,23.12
2018-08-16T14:57:04.691Z,23.21
2018-08-16T14:59:33.300Z,24.04
2018-08-16T15:02:01.885Z,23.58
2018-08-16T15:04:30.459Z,23.68
2018-08-16T15:06:59.043Z,23.58
2018-08-16T15:09:27.725Z,23.34
2018-08-16T15:11:56.313Z,23.64
2018-08-16T15:14:24.902Z,23.78
2018-08-16T15:16:58.462Z,23.71
2018-08-16T15:19:28.701Z,23.55
2018-08-16T15:21:58.452Z,23.35
2018-08-16T15:24:28.608Z,23.93
2018-08-16T15:26:59.608Z,23.97
2018-08-16T15:29:28.199Z,24.25
2018-08-16T15:31:56.844Z,23.25
2018-08-16T15:34:25.496Z,23.63
2018-08-16T15:36:54.083Z,23.90
2018-08-16T15:39:22.659Z,23.18
2018-08-16T15:41:51.448Z,23.24
2018-08-16T15:44:20.036Z,23.25
2018-08-16T15:46:48.632Z,23.27
2018-08-16T15:49:17.456Z,23.61
2018-08-16T15:51:46.051Z,23.50
2018-08-16T15:54:14.624Z,24.14
2018-08-16T15:56:43.241Z,24.26
2018-08-16T15:59:11.851Z,23.82
2018-08-16T16:01:40.457Z,23.87
2018-08-16T16:04:09.213Z,23.73
2018-08-16T16:06:37.816Z,23.70
2018-08-16T16:09:08.367Z,24.05
2018-08-16T16:11:36.999Z,23.43
2018-08-16T16:14:06.277Z,23.85
2018-08-16T16:16:34.960Z,24.23
2018-08-16T16:19:03.516Z,24.27
2018-08-16T16:21:32.123Z,24.22
2018-08-16T16:24:01.012Z,24.08
2018-08-16T16:26:29.610Z,24.12
2018-08-16T16:28:58.168Z,24.85
2018-08-16T16:31:27.071Z,24.04
2018-08-16T16:33:55.704Z,24.01
2018-08-16T16:36:24.355Z,23.96
2018-08-16T16:38:53.065Z,24.21
2018-08-16T16:41:21.680Z,24.22
2018-08-16T16:43:50.308Z,24.13
2018-08-16T16:46:19.331Z,24.39
2018-08-16T16:48:48.800Z,24.69
2018-08-16T16:51:17.352Z,24.49
2018-08-16T16:53:46.184Z,24.90
2018-08-16T16:56:14.860Z,24.89
2018-08-16T16:58:43.660Z,24.50
2018-08-16T17:01:12.687Z,24.38
2018-08-16T17:03:41.247Z,25.05
2018-08-16T17:06:10.019Z,24.89
2018-08-16T17:08:38.774Z,25.05
2018-08-16T17:11:07.379Z,24.62
2018-08-16T17:13:35.975Z,25.04
2018-08-16T17:16:04.783Z,24.51
2018-08-16T17:18:33.458Z,25.11
2018-08-16T17:21:02.110Z,24.55
2018-08-16T17:23:30.904Z,24.68
2018-08-16T17:25:59.602Z,24.80
2018-08-16T17:28:28.327Z,25.13
2018-08-16T17:30:57.003Z,25.36
2018-08-16T17:33:25.716Z,24.98
2018-08-16T17:35:54.285Z,25.18
2018-08-16T17:38:23.005Z,25.75
2018-08-16T17:40:51.609Z,25.68
2018-08-16T17:43:20.208Z,26.03
2018-08-16T17:45:48.871Z,26.47
2018-08-16T17:48:17.457Z,26.11
2018-08-16T17:50:50.666Z,26.50
2018-08-16T17:53:20.012Z,26.56
2018-08-16T17:55:52.132Z,25.66
2018-08-16T17:58:20.979Z,25.93
2018-08-16T18:00:54.764Z,26.66
2018-08-16T18:03:25.542Z,26.84
2018-08-16T18:05:54.997Z,26.67
2018-08-16T18:08:24.327Z,26.95
2018-08-16T18:10:53.852Z,27.07
2018-08-16T18:13:24.779Z,27.72
2018-08-16T18:15:54.684Z,27.50
2018-08-16T18:18:23.375Z,28.76
2018-08-16T18:20:53.963Z,28.21
2018-08-16T18:23:22.554Z,28.98
2018-08-16T18:25:53.160Z,28.60
2018-08-16T18:28:24.400Z,28.90
2018-08-16T18:30:53.938Z,29.52
2018-08-16T18:33:23.479Z,29.74
2018-08-16T18:35:53.220Z,29.91
2018-08-16T18:38:24.495Z,29.91
2018-08-16T18:40:54.863Z,30.57
2018-08-16T18:43:23.437Z,32.04
2018-08-16T18:45:53.545Z,32.09
2018-08-16T18:48:26.613Z,32.67
2018-08-16T18:50:56.823Z,31.93
2018-08-16T18:53:25.415Z,31.57
2018-08-16T18:55:56.187Z,32.76
2018-08-16T18:58:26.708Z,34.36
2018-08-16T19:00:55.350Z,35.01
2018-08-16T19:03:26.534Z,34.61
2018-08-16T19:05:55.204Z,34.77
2018-08-16T19:08:23.758Z,33.87
2018-08-16T19:10:54.375Z,33.68
2018-08-16T19:13:24.627Z,33.85
2018-08-16T19:15:53.087Z,33.92
2018-08-16T19:18:22.395Z,33.64
2018-08-16T19:20:51.995Z,34.22
2018-08-16T19:23:21.387Z,34.19
2018-08-16T19:25:51.060Z,33.86
2018-08-16T19:28:23.979Z,34.82
2018-08-16T19:30:52.575Z,34.70
2018-08-16T19:33:21.644Z,34.10
2018-08-16T19:35:50.425Z,34.47
2018-08-16T19:38:19.379Z,33.84
2018-08-16T19:40:51.052Z,33.73
2018-08-16T19:43:21.059Z,33.56
2018-08-16T19:45:51.826Z,33.73
2018-08-16T19:48:23.485Z,33.05
2018-08-16T19:50:53.004Z,33.18
2018-08-16T19:53:23.135Z,33.08
2018-08-16T19:55:53.655Z,33.88
2018-08-16T19:58:23.938Z,35.21
2018-08-16T20:00:53.590Z,35.36
2018-08-16T20:03:23.284Z,34.74
2018-08-16T20:05:51.903Z,34.37
2018-08-16T20:08:20.515Z,35.20
2018-08-16T20:10:50.031Z,34.96
2018-08-16T20:13:18.669Z,35.63
2018-08-16T20:15:47.224Z,36.39
2018-08-16T20:18:15.904Z,36.58
2018-08-16T20:20:44.592Z,36.40
2018-08-16T20:23:13.201Z,37.05
2018-08-16T20:25:41.800Z,37.29
2018-08-16T20:28:10.431Z,37.49
2018-08-16T20:30:39.028Z,37.70
2018-08-16T20:33:07.644Z,38.25
2018-08-16T20:35:36.486Z,38.72
2018-08-16T20:38:05.068Z,38.87
2018-08-16T20:40:33.627Z,39.31
2018-08-16T20:43:02.241Z,39.22
2018-08-16T20:45:30.852Z,39.30
2018-08-16T20:47:59.474Z,39.46
2018-08-16T20:50:28.339Z,39.50
2018-08-16T20:52:56.924Z,40.26
2018-08-16T20:55:25.528Z,40.30
2018-08-16T20:57:54.218Z,40.26
2018-08-16T21:00:22.833Z,40.46
2018-08-16T21:02:51.396Z,40.98
2018-08-16T21:05:20.016Z,40.51
2018-08-16T21:07:48.588Z,40.55
2018-08-16T21:10:17.310Z,41.22
2018-08-16T21:12:45.968Z,41.34
2018-08-16T21:15:14.556Z,40.94
2018-08-16T21:17:43.141Z,41.28
2018-08-16T21:20:11.849Z,40.94
2018-08-16T21:22:40.421Z,41.01
2018-08-16T21:25:09.055Z,41.20
2018-08-16T21:27:37.716Z,40.74
2018-08-16T21:30:07.387Z,40.74
2018-08-16T21:32:35.974Z,40.17
2018-08-16T21:35:04.874Z,41.02
2018-08-16T21:37:33.449Z,40.64
2018-08-16T21:40:02.068Z,41.01
2018-08-16T21:42:30.780Z,41.04
2018-08-16T21:44:59.383Z,41.85
2018-08-16T21:47:27.992Z,42.16
2018-08-16T21:49:56.728Z,41.88
2018-08-16T21:52:25.428Z,42.27
2018-08-16T21:54:54.167Z,42.68
2018-08-16T21:57:22.788Z,42.95
2018-08-16T21:59:51.343Z,42.90
2018-08-16T22:02:19.973Z,42.86
2018-08-16T22:04:48.688Z,43.22
2018-08-16T22:07:34.143Z,42.97
2018-08-16T22:10:03.071Z,42.79
2018-08-16T22:12:31.704Z,42.99
2018-08-16T22:15:00.273Z,43.04
2018-08-16T22:17:29.119Z,43.17
2018-08-16T22:19:57.688Z,43.15
2018-08-16T22:22:26.259Z,43.13
2018-08-16T22:24:55.020Z,43.75
2018-08-16T22:27:23.592Z,43.55
2018-08-16T22:29:52.184Z,43.91
2018-08-16T22:32:20.820Z,43.39
2018-08-16T22:34:49.400Z,44.27
2018-08-16T22:37:17.967Z,43.88
2018-08-16T22:39:46.588Z,44.56
2018-08-16T22:42:15.189Z,44.39
2018-08-16T22:44:43.781Z,44.64
2018-08-16T22:47:12.391Z,45.00
2018-08-16T22:49:41.220Z,44.78
2018-08-16T22:52:09.813Z,45.30
2018-08-16T22:54:38.704Z,45.47
2018-08-16T22:57:07.362Z,45.97
2018-08-16T22:59:35.948Z,46.20
2018-08-16T23:02:04.868Z,46.94
2018-08-16T23:04:33.440Z,46.72
2018-08-16T23:07:02.002Z,46.53
2018-08-16T23:09:30.639Z,46.75
2018-08-16T23:11:59.216Z,47.12
2018-08-16T23:14:27.812Z,46.82
2018-08-16T23:16:56.400Z,47.40
2018-08-16T23:19:25.001Z,47.78
2018-08-16T23:21:53.584Z,48.49
2018-08-16T23:24:22.168Z,48.79
2018-08-16T23:26:50.989Z,49.57
2018-08-16T23:29:19.576Z,49.59
2018-08-16T23:31:48.495Z,49.81
2018-08-16T23:34:17.190Z,49.38
2018-08-16T23:36:45.772Z,49.35
2018-08-16T23:39:14.424Z,48.41
2018-08-16T23:41:42.999Z,48.82
2018-08-16T23:44:11.580Z,48.43
2018-08-16T23:46:40.339Z,48.58
2018-08-16T23:49:08.905Z,47.85
2018-08-16T23:51:37.477Z,47.94
2018-08-16T23:54:06.179Z,48.01
2018-08-16T23:56:34.783Z,47.73
2018-08-16T23:59:03.384Z,48.46
